createdAt,value
2022-08-03T00:00:24.383Z,100822.38
2022-08-03T00:02:50.982Z,100815.69
2022-08-03T00:05:18.518Z,100820.53
2022-08-03T00:07:45.004Z,100816.59
2022-08-03T00:10:12.609Z,100813.56
2022-08-03T00:12:40.042Z,100817.94
2022-08-03T00:15:08.319Z,100816.69
2022-08-03T00:17:52.472Z,100813.03
2022-08-03T00:20:21.439Z,100811.06
2022-08-03T00:22:48.932Z,100818.25
2022-08-03T00:25:16.335Z,100819.06
2022-08-03T00:27:43.727Z,100815.50
2022-08-03T00:30:11.164Z,100814.31
2022-08-03T00:32:38.880Z,100822.63
2022-08-03T00:35:25.985Z,100824.25
2022-08-03T00:38:00.095Z,100816.66
2022-08-03T00:40:26.627Z,100816.94
2022-08-03T00:42:53.117Z,100810.94
2022-08-03T00:45:19.606Z,100819.63
2022-08-03T00:47:47.001Z,100825.28
2022-08-03T00:50:14.463Z,100830.44
2022-08-03T00:52:40.956Z,100829.78
2022-08-03T00:55:07.493Z,100823.44
2022-08-03T00:57:34.895Z,100829.03
2022-08-03T01:00:01.384Z,100828.50
2022-08-03T01:02:28.800Z,100833.59
2022-08-03T01:04:56.228Z,100824.66
2022-08-03T01:07:23.629Z,100821.34
2022-08-03T01:09:51.035Z,100822.06
2022-08-03T01:12:18.537Z,100829.59
2022-08-03T01:14:46.010Z,100817.69
2022-08-03T01:17:12.546Z,100833.44
2022-08-03T01:19:39.062Z,100829.91
2022-08-03T01:22:05.564Z,100824.28
2022-08-03T01:24:32.060Z,100828.59
2022-08-03T01:26:59.474Z,100828.94
2022-08-03T01:29:29.332Z,100825.47
2022-08-03T01:33:00.969Z,100832.72
2022-08-03T01:34:43.233Z,100828.69
2022-08-03T01:37:09.732Z,100828.53
2022-08-03T01:39:36.231Z,100826.25
2022-08-03T01:42:02.685Z,100821.97
2022-08-03T01:44:31.030Z,100827.13
2022-08-03T01:46:58.525Z,100827.03
2022-08-03T01:49:25.111Z,100820.81
2022-08-03T01:51:58.444Z,100813.78
2022-08-03T01:54:31.262Z,100814.25
2022-08-03T01:56:57.752Z,100812.25
2022-08-03T01:59:24.246Z,100817.84
2022-08-03T02:02:16.033Z,100806.75
2022-08-03T02:04:37.196Z,100801.34
2022-08-03T02:07:03.714Z,100802.19
2022-08-03T02:09:30.207Z,100805.78
2022-08-03T02:11:57.606Z,100801.09
2022-08-03T02:14:24.075Z,100807.84
2022-08-03T02:16:50.544Z,100807.75
2022-08-03T02:19:17.951Z,100801.69
2022-08-03T02:21:56.927Z,100804.75
2022-08-03T02:24:27.692Z,100796.25
2022-08-03T02:26:54.201Z,100801.06
2022-08-03T02:29:21.610Z,100796.28
2022-08-03T02:32:06.962Z,100807.06
2022-08-03T02:34:33.443Z,100803.09
2022-08-03T02:36:59.915Z,100804.31
2022-08-03T02:39:27.298Z,100801.53
2022-08-03T02:41:53.775Z,100805.91
2022-08-03T02:44:20.686Z,100809.53
2022-08-03T02:46:47.184Z,100813.97
2022-08-03T02:49:42.055Z,100811.69
2022-08-03T02:52:01.053Z,100811.28
2022-08-03T02:54:27.538Z,100813.25
2022-08-03T02:56:55.761Z,100815.19
2022-08-03T02:59:22.255Z,100814.09
2022-08-03T03:01:49.640Z,100813.75
2022-08-03T03:04:17.048Z,100815.78
2022-08-03T03:06:43.531Z,100813.41
2022-08-03T03:09:14.333Z,100817.13
2022-08-03T03:11:41.757Z,100815.44
2022-08-03T03:14:08.778Z,100818.16
2022-08-03T03:16:35.293Z,100816.88
2022-08-03T03:19:01.806Z,100829.25
2022-08-03T03:21:29.228Z,100824.88
2022-08-03T03:23:55.708Z,100822.84
2022-08-03T03:26:22.200Z,100824.00
2022-08-03T03:28:48.728Z,100829.56
2022-08-03T03:31:16.129Z,100821.25
2022-08-03T03:33:42.613Z,100822.09
2022-08-03T03:36:10.039Z,100823.22
2022-08-03T03:38:36.526Z,100826.00
2022-08-03T03:41:03.960Z,100823.66
2022-08-03T03:43:30.460Z,100820.03
2022-08-03T03:45:56.961Z,100826.78
2022-08-03T03:48:24.580Z,100822.78
2022-08-03T03:50:51.075Z,100830.28
2022-08-03T03:53:17.592Z,100825.41
2022-08-03T03:55:59.237Z,100825.38
2022-08-03T03:58:29.296Z,100823.66
2022-08-03T04:00:55.821Z,100831.63
2022-08-03T04:03:23.293Z,100835.22
2022-08-03T04:05:49.795Z,100837.31
2022-08-03T04:08:16.261Z,100840.03
2022-08-03T04:10:42.746Z,100840.81
2022-08-03T04:13:10.184Z,100838.84
2022-08-03T04:15:36.802Z,100838.47
2022-08-03T04:18:03.293Z,100840.44
2022-08-03T04:20:29.798Z,100849.16
2022-08-03T04:22:56.280Z,100844.44
2022-08-03T04:25:22.758Z,100852.38
2022-08-03T04:28:28.293Z,100848.03
2022-08-03T04:30:36.618Z,100851.72
2022-08-03T04:33:04.060Z,100861.28
2022-08-03T04:36:01.105Z,100866.50
2022-08-03T04:38:18.855Z,100860.81
2022-08-03T04:40:45.363Z,100861.44
2022-08-03T04:43:12.778Z,100866.13
2022-08-03T04:45:39.258Z,100868.47
2022-08-03T04:48:05.759Z,100869.19
2022-08-03T04:50:32.267Z,100864.41
2022-08-03T04:52:58.749Z,100872.38
2022-08-03T04:55:25.285Z,100870.75
2022-08-03T04:57:51.776Z,100867.50
2022-08-03T05:00:19.169Z,100868.69
2022-08-03T05:02:46.599Z,100873.88
2022-08-03T05:05:14.013Z,100876.22
2022-08-03T05:07:40.511Z,100873.00
2022-08-03T05:10:15.157Z,100879.03
2022-08-03T05:12:42.698Z,100878.59
2022-08-03T05:15:10.083Z,100884.16
2022-08-03T05:17:36.605Z,100879.41
2022-08-03T05:20:04.056Z,100881.03
2022-08-03T05:22:31.492Z,100883.38
2022-08-03T05:24:57.992Z,100878.53
2022-08-03T05:27:24.487Z,100882.50
2022-08-03T05:29:50.968Z,100883.66
2022-08-03T05:32:18.595Z,100889.22
2022-08-03T05:34:45.367Z,100890.41
2022-08-03T05:37:12.847Z,100886.38
2022-08-03T05:39:39.314Z,100889.63
2022-08-03T05:42:05.823Z,100891.19
2022-08-03T05:44:32.486Z,100893.59
2022-08-03T05:46:59.002Z,100902.38
2022-08-03T05:49:25.635Z,100898.75
2022-08-03T05:52:08.219Z,100900.34
2022-08-03T05:54:57.393Z,100903.13
2022-08-03T05:57:24.231Z,100905.50
2022-08-03T05:59:54.542Z,100895.13
2022-08-03T06:02:24.591Z,100899.13
2022-08-03T06:04:51.075Z,100910.69
2022-08-03T06:07:18.490Z,100905.09
2022-08-03T06:10:34.171Z,100912.69
2022-08-03T06:12:32.355Z,100906.31
2022-08-03T06:14:59.781Z,100913.09
2022-08-03T06:17:26.769Z,100917.50
2022-08-03T06:19:53.475Z,100916.25
2022-08-03T06:22:19.953Z,100909.88
2022-08-03T06:24:53.431Z,100915.06
2022-08-03T06:27:21.241Z,100915.03
2022-08-03T06:30:03.459Z,100918.25
2022-08-03T06:32:29.949Z,100914.63
2022-08-03T06:34:56.456Z,100911.41
2022-08-03T06:37:22.929Z,100916.59
2022-08-03T06:39:50.406Z,100920.13
2022-08-03T06:42:18.123Z,100919.34
2022-08-03T06:44:48.086Z,100924.94
2022-08-03T06:47:15.522Z,100930.13
2022-08-03T06:49:42.087Z,100916.53
2022-08-03T06:52:08.627Z,100919.34
2022-08-03T06:54:36.240Z,100920.91
2022-08-03T07:00:10.656Z,100926.06
2022-08-03T07:02:36.389Z,100914.81
2022-08-03T07:05:02.913Z,100930.41
2022-08-03T07:07:30.361Z,100923.22
2022-08-03T07:09:58.274Z,100928.38
2022-08-03T07:12:25.910Z,100926.38
2022-08-03T07:14:56.668Z,100931.56
2022-08-03T07:17:27.648Z,100933.56
2022-08-03T07:19:54.153Z,100925.13
2022-08-03T07:22:21.685Z,100929.94
2022-08-03T07:24:48.180Z,100929.94
2022-08-03T07:27:15.606Z,100923.94
2022-08-03T07:29:42.110Z,100926.75
2022-08-03T07:32:08.625Z,100926.22
2022-08-03T07:34:36.087Z,100930.56
2022-08-03T07:37:02.586Z,100932.16
2022-08-03T07:39:29.152Z,100921.84
2022-08-03T07:41:56.633Z,100929.53
2022-08-03T07:44:23.154Z,100925.56
2022-08-03T07:46:49.661Z,100926.28
2022-08-03T07:49:16.191Z,100933.03
2022-08-03T07:51:42.749Z,100929.03
2022-08-03T07:54:09.245Z,100939.81
2022-08-03T07:56:35.773Z,100931.00
2022-08-03T07:59:02.253Z,100928.94
2022-08-03T08:01:28.797Z,100932.03
2022-08-03T08:03:56.295Z,100929.16
2022-08-03T08:06:22.775Z,100927.06
2022-08-03T08:08:50.305Z,100931.03
2022-08-03T08:11:16.822Z,100935.53
2022-08-03T08:13:43.363Z,100933.19
2022-08-03T08:16:10.817Z,100937.59
2022-08-03T08:18:37.302Z,100936.97
2022-08-03T08:21:03.802Z,100939.66
2022-08-03T08:23:41.874Z,100939.13
2022-08-03T08:26:09.604Z,100939.09
2022-08-03T08:28:36.117Z,100932.56
2022-08-03T08:31:03.629Z,100938.28
2022-08-03T08:34:01.034Z,100937.13
2022-08-03T08:36:18.497Z,100933.56
2022-08-03T08:38:45.912Z,100931.44
2022-08-03T08:41:12.416Z,100933.34
2022-08-03T08:43:38.903Z,100931.91
2022-08-03T08:46:05.369Z,100938.94
2022-08-03T08:48:32.726Z,100933.44
2022-08-03T08:50:59.213Z,100931.56
2022-08-03T08:53:27.644Z,100937.56
2022-08-03T08:55:57.955Z,100929.56
2022-08-03T08:58:27.545Z,100935.50
2022-08-03T09:00:54.038Z,100933.28
2022-08-03T09:03:22.642Z,100931.47
2022-08-03T09:05:57.212Z,100932.25
2022-08-03T09:08:24.657Z,100928.72
2022-08-03T09:10:52.044Z,100924.69
2022-08-03T09:13:18.516Z,100938.16
2022-08-03T09:16:00.592Z,100932.38
2022-08-03T09:18:29.309Z,100929.78
2022-08-03T09:21:03.820Z,100938.47
2022-08-03T09:24:01.457Z,100934.16
2022-08-03T09:26:29.970Z,100932.31
2022-08-03T09:29:04.648Z,100927.13
2022-08-03T09:31:33.544Z,100928.88
2022-08-03T09:34:00.017Z,100925.41
2022-08-03T09:36:26.488Z,100931.53
2022-08-03T09:38:52.952Z,100930.94
2022-08-03T09:41:19.425Z,100928.72
2022-08-03T09:43:46.810Z,100924.72
2022-08-03T09:46:14.208Z,100922.28
2022-08-03T09:48:41.580Z,100921.09
2022-08-03T09:51:14.079Z,100929.16
2022-08-03T09:53:59.007Z,100924.22
2022-08-03T09:56:35.923Z,100924.34
2022-08-03T09:59:03.453Z,100913.94
2022-08-03T10:01:30.022Z,100918.69
2022-08-03T10:04:04.450Z,100916.25
2022-08-03T10:06:31.523Z,100911.16
2022-08-03T10:08:58.896Z,100916.25
2022-08-03T10:11:25.453Z,100913.97
2022-08-03T10:13:58.110Z,100919.44
2022-08-03T10:16:28.848Z,100917.47
2022-08-03T10:18:56.252Z,100910.69
2022-08-03T10:21:23.620Z,100914.69
2022-08-03T10:23:51.003Z,100912.19
2022-08-03T10:26:18.329Z,100915.03
2022-08-03T10:28:45.826Z,100916.75
2022-08-03T10:31:12.301Z,100917.16
2022-08-03T10:33:51.887Z,100916.72
2022-08-03T10:36:20.143Z,100913.66
2022-08-03T10:38:47.518Z,100916.41
2022-08-03T10:41:13.966Z,100910.16
2022-08-03T10:43:40.437Z,100910.63
2022-08-03T10:46:07.832Z,100909.38
2022-08-03T10:48:35.248Z,100907.88
2022-08-03T10:51:02.607Z,100908.75
2022-08-03T10:53:29.075Z,100909.03
2022-08-03T10:55:56.980Z,100914.19
2022-08-03T10:58:30.758Z,100902.75
2022-08-03T11:00:57.480Z,100909.16
2022-08-03T11:03:24.876Z,100910.44
2022-08-03T11:05:52.246Z,100904.69
2022-08-03T11:08:18.718Z,100910.81
2022-08-03T11:10:45.156Z,100908.66
2022-08-03T11:13:11.634Z,100903.31
2022-08-03T11:15:43.252Z,100896.38
2022-08-03T11:18:11.302Z,100906.41
2022-08-03T11:20:37.961Z,100897.16
2022-08-03T11:23:05.395Z,100896.88
2022-08-03T11:25:53.048Z,100901.19
2022-08-03T11:28:20.156Z,100899.13
2022-08-03T11:30:46.768Z,100899.59
2022-08-03T11:33:13.225Z,100891.91
2022-08-03T11:35:40.617Z,100885.03
2022-08-03T11:38:07.127Z,100892.16
2022-08-03T11:40:33.650Z,100885.41
2022-08-03T11:43:01.066Z,100884.38
2022-08-03T11:45:27.543Z,100883.16
2022-08-03T11:47:54.932Z,100873.56
2022-08-03T11:50:21.607Z,100872.38
2022-08-03T11:52:49.043Z,100875.59
2022-08-03T11:55:15.521Z,100874.34
2022-08-03T11:59:10.766Z,100872.44
2022-08-03T12:00:28.482Z,100872.97
2022-08-03T12:02:54.988Z,100869.50
2022-08-03T12:05:22.468Z,100875.13
2022-08-03T12:08:03.688Z,100868.81
2022-08-03T12:10:33.451Z,100869.22
2022-08-03T12:13:00.842Z,100868.94
2022-08-03T12:15:27.280Z,100868.06
2022-08-03T12:17:57.446Z,100874.25
2022-08-03T12:20:31.420Z,100872.22
2022-08-03T12:23:02.845Z,100873.16
2022-08-03T12:25:39.505Z,100868.47
2022-08-03T12:28:06.466Z,100871.47
2022-08-03T12:30:52.922Z,100861.28
2022-08-03T12:33:19.406Z,100869.22
2022-08-03T12:35:52.146Z,100864.31
2022-08-03T12:38:20.169Z,100859.34
2022-08-03T12:40:46.654Z,100862.91
2022-08-03T12:43:13.136Z,100866.75
2022-08-03T12:45:39.642Z,100858.06
2022-08-03T12:48:07.033Z,100850.00
2022-08-03T12:50:33.518Z,100859.28
2022-08-03T12:53:00.002Z,100855.50
2022-08-03T12:55:26.508Z,100852.69
2022-08-03T12:57:53.912Z,100854.72
2022-08-03T13:00:28.850Z,100852.41
2022-08-03T13:03:24.744Z,100848.28
2022-08-03T13:05:44.516Z,100844.28
2022-08-03T13:08:10.982Z,100832.88
2022-08-03T13:10:38.967Z,100834.03
2022-08-03T13:13:06.370Z,100833.91
2022-08-03T13:15:38.696Z,100832.81
2022-08-03T13:18:14.332Z,100832.44
2022-08-03T13:20:44.770Z,100831.81
2022-08-03T13:23:15.375Z,100824.84
2022-08-03T13:25:55.391Z,100829.78
2022-08-03T13:28:22.636Z,100829.53
2022-08-03T13:30:49.106Z,100825.28
2022-08-03T13:33:16.574Z,100825.22
2022-08-03T13:35:42.962Z,100825.22
2022-08-03T13:38:10.357Z,100827.09
2022-08-03T13:40:41.463Z,100825.50
2022-08-03T13:43:08.925Z,100821.19
2022-08-03T13:45:36.290Z,100821.47
2022-08-03T13:48:03.640Z,100812.78
2022-08-03T13:50:30.108Z,100817.22
2022-08-03T13:52:57.451Z,100824.13
2022-08-03T13:55:23.922Z,100812.56
2022-08-03T13:58:04.432Z,100811.81
2022-08-03T14:00:34.265Z,100817.56
2022-08-03T14:03:09.207Z,100816.09
2022-08-03T14:05:40.293Z,100805.72
2022-08-03T14:08:06.820Z,100808.69
2022-08-03T14:10:34.153Z,100801.25
2022-08-03T14:13:00.633Z,100806.31
2022-08-03T14:15:27.146Z,100802.81
2022-08-03T14:17:54.461Z,100804.13
2022-08-03T14:20:37.475Z,100802.19
2022-08-03T14:23:06.417Z,100798.16
2022-08-03T14:25:50.479Z,100794.41
2022-08-03T14:28:20.292Z,100795.38
2022-08-03T14:30:47.614Z,100793.69
2022-08-03T14:33:14.099Z,100792.56
2022-08-03T14:35:41.496Z,100792.91
2022-08-03T14:38:08.961Z,100788.53
2022-08-03T14:40:35.421Z,100787.81
2022-08-03T14:43:02.812Z,100786.56
2022-08-03T14:45:29.245Z,100782.63
2022-08-03T14:50:29.015Z,100781.47
2022-08-03T14:50:48.513Z,100782.56
2022-08-03T14:53:18.361Z,100782.63
2022-08-03T14:55:50.419Z,100777.38
2022-08-03T14:58:20.720Z,100776.19
2022-08-03T15:00:48.697Z,100784.22
2022-08-03T15:03:16.909Z,100784.66
2022-08-03T15:05:43.629Z,100781.03
2022-08-03T15:08:11.023Z,100780.19
2022-08-03T15:10:43.840Z,100779.06
2022-08-03T15:13:11.468Z,100779.75
2022-08-03T15:15:38.886Z,100782.22
2022-08-03T15:18:06.260Z,100777.09
2022-08-03T15:20:43.808Z,100778.22
2022-08-03T15:23:12.062Z,100768.19
2022-08-03T15:26:29.394Z,100774.66
2022-08-03T15:28:26.730Z,100767.69
2022-08-03T15:30:53.989Z,100766.97
2022-08-03T15:33:21.305Z,100765.53
2022-08-03T15:35:47.920Z,100767.19
2022-08-03T15:38:14.498Z,100762.91
2022-08-03T15:40:41.798Z,100764.22
2022-08-03T15:43:09.081Z,100761.59
2022-08-03T15:45:36.898Z,100767.34
2022-08-03T15:48:04.545Z,100759.22
2022-08-03T15:50:30.990Z,100759.34
2022-08-03T15:52:58.329Z,100756.63
2022-08-03T15:55:25.687Z,100754.69
2022-08-03T15:59:03.759Z,100754.53
2022-08-03T16:00:38.645Z,100750.66
2022-08-03T16:03:06.035Z,100745.13
2022-08-03T16:05:32.468Z,100749.44
2022-08-03T16:08:03.727Z,100741.09
2022-08-03T16:10:31.076Z,100743.03
2022-08-03T16:12:57.607Z,100733.34
2022-08-03T16:15:24.042Z,100738.75
2022-08-03T16:17:51.421Z,100733.22
2022-08-03T16:20:30.738Z,100733.22
2022-08-03T16:23:11.505Z,100734.00
2022-08-03T16:25:39.878Z,100731.19
2022-08-03T16:28:13.040Z,100731.97
2022-08-03T16:30:40.183Z,100731.91
2022-08-03T16:33:07.514Z,100735.13
2022-08-03T16:35:34.887Z,100736.44
2022-08-03T16:38:05.358Z,100725.66
2022-08-03T16:40:35.284Z,100730.03
2022-08-03T16:43:01.743Z,100732.47
2022-08-03T16:45:28.200Z,100730.09
2022-08-03T16:48:01.704Z,100726.50
2022-08-03T16:50:33.163Z,100730.16
2022-08-03T16:53:00.564Z,100724.34
2022-08-03T16:55:43.553Z,100730.66
2022-08-03T16:58:14.471Z,100729.81
2022-08-03T17:00:42.235Z,100734.63
2022-08-03T17:03:18.602Z,100737.03
2022-08-03T17:05:47.038Z,100732.97
2022-08-03T17:08:15.457Z,100738.56
2022-08-03T17:10:41.974Z,100737.78
2022-08-03T17:13:12.737Z,100740.19
2022-08-03T17:16:00.698Z,100750.22
2022-08-03T17:18:28.467Z,100739.88
2022-08-03T17:20:54.938Z,100753.03
2022-08-03T17:23:34.788Z,100750.63
2022-08-03T17:26:04.789Z,100747.34
2022-08-03T17:28:48.490Z,100750.94
2022-08-03T17:31:23.122Z,100758.19
2022-08-03T17:34:00.402Z,100755.81
2022-08-03T17:36:47.501Z,100762.59
2022-08-03T17:39:14.440Z,100765.31
2022-08-03T17:41:50.111Z,100770.84
2022-08-03T17:44:31.102Z,100774.44
2022-08-03T17:47:04.169Z,100773.22
2022-08-03T17:49:33.116Z,100782.50
2022-08-03T17:52:09.961Z,100781.44
2022-08-03T17:54:36.618Z,100786.28
2022-08-03T17:57:27.231Z,100788.72
2022-08-03T17:59:53.897Z,100788.72
2022-08-03T18:02:29.878Z,100793.56
2022-08-03T18:05:00.524Z,100794.34
2022-08-03T18:07:41.115Z,100794.69
2022-08-03T18:10:11.439Z,100803.84
2022-08-03T18:12:42.606Z,100801.41
2022-08-03T18:15:20.895Z,100802.19
2022-08-03T18:17:58.145Z,100810.16
2022-08-03T18:23:24.957Z,100812.91
2022-08-03T18:26:04.895Z,100810.09
2022-08-03T18:28:31.478Z,100816.06
2022-08-03T18:30:58.856Z,100815.28
2022-08-03T18:34:17.506Z,100820.88
2022-08-03T18:38:59.463Z,100826.13
2022-08-03T18:41:33.292Z,100836.91
2022-08-03T18:44:09.018Z,100838.47
2022-08-03T18:46:36.238Z,100841.28
2022-08-03T18:49:08.125Z,100838.13
2022-08-03T18:51:43.396Z,100853.34
2022-08-03T18:54:51.785Z,100849.34
2022-08-03T18:57:00.867Z,100851.34
2022-08-03T18:59:30.391Z,100855.78
2022-08-03T19:02:00.225Z,100852.56
2022-08-03T19:04:30.424Z,100855.34
2022-08-03T19:06:58.409Z,100855.44
2022-08-03T19:09:27.745Z,100854.22
2022-08-03T19:12:13.955Z,100851.91
2022-08-03T19:14:41.733Z,100854.78
2022-08-03T19:17:08.906Z,100851.91
2022-08-03T19:19:44.265Z,100855.44
2022-08-03T19:22:11.312Z,100853.41
2022-08-03T19:24:37.777Z,100855.84
2022-08-03T19:27:05.225Z,100849.53
2022-08-03T19:29:58.797Z,100849.53
2022-08-03T19:32:24.020Z,100853.53
2022-08-03T19:34:50.776Z,100852.34
2022-08-03T19:37:18.691Z,100851.97
2022-08-03T19:39:56.686Z,100856.03
2022-08-03T19:42:23.439Z,100859.69
2022-08-03T19:44:49.936Z,100854.94
2022-08-03T19:47:19.404Z,100853.66
2022-08-03T19:49:59.968Z,100857.88
2022-08-03T19:52:33.763Z,100855.06
2022-08-03T19:55:00.249Z,100852.28
2022-08-03T19:57:27.665Z,100853.00
2022-08-03T19:59:55.979Z,100859.75
2022-08-03T20:02:26.015Z,100854.94
2022-08-03T20:04:53.858Z,100854.56
2022-08-03T20:07:22.869Z,100854.94
2022-08-03T20:09:54.710Z,100851.00
2022-08-03T20:12:28.373Z,100857.31
2022-08-03T20:14:55.204Z,100857.09
2022-08-03T20:17:22.867Z,100859.56
2022-08-03T20:20:09.390Z,100855.06
2022-08-03T20:22:35.933Z,100854.06
2022-08-03T20:25:05.673Z,100854.13
2022-08-03T20:27:32.175Z,100858.72
2022-08-03T20:30:20.384Z,100859.34
2022-08-03T20:32:53.900Z,100856.28
2022-08-03T20:35:21.727Z,100860.13
2022-08-03T20:37:49.130Z,100860.47
2022-08-03T20:40:16.457Z,100858.31
2022-08-03T20:42:45.214Z,100852.88
2022-08-03T20:46:00.205Z,100859.72
2022-08-03T20:47:59.216Z,100856.75
2022-08-03T20:50:25.771Z,100851.81
2022-08-03T20:52:52.266Z,100859.28
2022-08-03T20:55:18.747Z,100858.59
2022-08-03T20:57:49.208Z,100867.97
2022-08-03T21:00:19.258Z,100864.38
2022-08-03T21:02:48.612Z,100871.19
2022-08-03T21:05:16.026Z,100863.97
2022-08-03T21:08:03.805Z,100863.34
2022-08-03T21:10:29.009Z,100865.66
2022-08-03T21:12:58.650Z,100825.69
2022-08-03T21:13:05.681Z,100808.13
2022-08-03T21:13:12.685Z,100866.63
2022-08-03T21:16:02.359Z,100867.75
2022-08-03T21:18:30.502Z,100874.69
2022-08-03T21:20:58.257Z,100875.94
2022-08-03T21:23:39.886Z,100879.69
2022-08-03T21:26:13.137Z,100875.34
2022-08-03T21:28:40.586Z,100866.69
2022-08-03T21:31:07.099Z,100875.72
2022-08-03T21:33:33.598Z,100881.13
2022-08-03T21:36:00.116Z,100875.88
2022-08-03T21:38:30.234Z,100874.78
2022-08-03T21:40:56.890Z,100872.94
2022-08-03T21:43:23.416Z,100881.25
2022-08-03T21:45:49.930Z,100874.50
2022-08-03T21:48:17.353Z,100878.81
2022-08-03T21:50:44.807Z,100885.81
2022-08-03T21:53:12.217Z,100881.97
2022-08-03T21:55:39.653Z,100879.81
2022-08-03T21:58:07.105Z,100878.16
2022-08-03T22:00:33.583Z,100889.59
2022-08-03T22:03:00.070Z,100892.06
2022-08-03T22:05:43.939Z,100890.69
2022-08-03T22:08:10.622Z,100883.13
2022-08-03T22:10:37.129Z,100884.69
2022-08-03T22:13:04.598Z,100885.09
2022-08-03T22:15:31.110Z,100888.78
2022-08-03T22:17:58.545Z,100893.84
2022-08-03T22:20:25.974Z,100883.59
2022-08-03T22:22:55.109Z,100883.59
2022-08-03T22:25:22.715Z,100882.84
2022-08-03T22:27:49.205Z,100878.16
2022-08-03T22:30:15.703Z,100882.38
2022-08-03T22:32:43.103Z,100884.94
2022-08-03T22:35:09.609Z,100885.78
2022-08-03T22:37:37.089Z,100884.59
2022-08-03T22:40:03.602Z,100887.91
2022-08-03T22:42:30.094Z,100882.56
2022-08-03T22:44:57.503Z,100889.00
2022-08-03T22:47:25.066Z,100887.78
2022-08-03T22:50:31.794Z,100879.84
2022-08-03T22:52:38.244Z,100882.56
2022-08-03T22:55:05.689Z,100876.19
2022-08-03T22:57:33.104Z,100878.69
2022-08-03T23:00:00.537Z,100878.78
2022-08-03T23:02:27.924Z,100882.03
2022-08-03T23:04:55.334Z,100878.50
2022-08-03T23:07:22.107Z,100876.50
2022-08-03T23:09:49.774Z,100875.88
2022-08-03T23:12:16.262Z,100878.22
2022-08-03T23:14:42.762Z,100878.22
2022-08-03T23:17:09.270Z,100873.09
2022-08-03T23:19:44.568Z,100875.47
2022-08-03T23:22:28.619Z,100862.69
2022-08-03T23:24:57.946Z,100871.84
2022-08-03T23:27:25.354Z,100869.88
2022-08-03T23:29:52.791Z,100875.56
2022-08-03T23:32:19.260Z,100870.66
2022-08-03T23:34:45.755Z,100875.19
2022-08-03T23:37:13.228Z,100867.44
2022-08-03T23:39:40.631Z,100868.31
2022-08-03T23:42:08.049Z,100869.59
2022-08-03T23:44:35.465Z,100863.59
2022-08-03T23:47:02.001Z,100865.53
2022-08-03T23:49:29.399Z,100854.22
2022-08-03T23:51:56.831Z,100869.78
2022-08-03T23:54:23.353Z,100857.81
2022-08-03T23:56:50.770Z,100867.78
2022-08-03T23:59:18.204Z,100860.72
